createdAt,value
2017-06-14T00:00:48.875Z,9.01
2017-06-14T00:01:49.060Z,9.04
2017-06-14T00:02:48.854Z,9
2017-06-14T00:03:48.842Z,8.98
2017-06-14T00:04:48.833Z,9.01
2017-06-14T00:05:48.816Z,8.96
2017-06-14T00:06:48.808Z,9.01
2017-06-14T00:07:48.802Z,8.93
2017-06-14T00:08:48.792Z,8.98
2017-06-14T00:09:48.782Z,8.96
2017-06-14T00:10:48.770Z,8.97
2017-06-14T00:11:48.761Z,8.98
2017-06-14T00:12:48.750Z,8.93
2017-06-14T00:13:48.737Z,8.97
2017-06-14T00:14:48.725Z,8.98
2017-06-14T00:15:48.717Z,8.94
2017-06-14T00:16:48.707Z,8.85
2017-06-14T00:17:48.696Z,9
2017-06-14T00:18:48.689Z,8.8
2017-06-14T00:19:48.676Z,8.83
2017-06-14T00:20:48.670Z,8.85
2017-06-14T00:21:48.658Z,8.79
2017-06-14T00:22:48.647Z,8.83
2017-06-14T00:23:48.634Z,8.78
2017-06-14T00:24:48.323Z,8.83
2017-06-14T00:25:48.616Z,8.75
2017-06-14T00:26:48.606Z,8.79
2017-06-14T00:27:48.594Z,8.78
2017-06-14T00:28:48.589Z,8.71
2017-06-14T00:29:48.479Z,8.82
2017-06-14T00:30:48.559Z,8.8
2017-06-14T00:31:48.551Z,8.71
2017-06-14T00:32:48.543Z,8.75
2017-06-14T00:33:48.738Z,8.73
2017-06-14T00:34:48.723Z,8.63
2017-06-14T00:35:48.512Z,8.65
2017-06-14T00:36:48.499Z,8.73
2017-06-14T00:37:48.492Z,8.7
2017-06-14T00:38:48.686Z,8.73
2017-06-14T00:39:48.469Z,8.67
2017-06-14T00:40:48.459Z,8.68
2017-06-14T00:41:48.448Z,8.65
2017-06-14T00:42:48.439Z,8.73
2017-06-14T00:43:48.425Z,8.63
2017-06-14T00:44:48.415Z,8.71
2017-06-14T00:45:48.411Z,8.63
2017-06-14T00:46:48.398Z,8.71
2017-06-14T00:47:48.386Z,8.65
2017-06-14T00:48:48.078Z,8.73
2017-06-14T00:49:48.368Z,8.6
2017-06-14T00:50:48.357Z,8.63
2017-06-14T00:51:48.047Z,8.6
2017-06-14T00:52:48.335Z,8.6
2017-06-14T00:53:48.324Z,8.55
2017-06-14T00:54:48.312Z,8.64
2017-06-14T00:55:48.308Z,8.71
2017-06-14T00:56:48.294Z,8.61
2017-06-14T00:57:48.289Z,8.68
2017-06-14T00:58:48.276Z,8.64
2017-06-14T00:59:48.265Z,8.6
2017-06-14T01:00:48.253Z,8.65
2017-06-14T01:01:47.944Z,8.67
2017-06-14T01:02:48.235Z,8.7
2017-06-14T01:03:48.225Z,8.76
2017-06-14T01:04:48.215Z,8.65
2017-06-14T01:05:48.207Z,8.6
2017-06-14T01:06:47.893Z,8.68
2017-06-14T01:07:48.184Z,8.6
2017-06-14T01:08:48.170Z,8.65
2017-06-14T01:09:47.864Z,8.7
2017-06-14T01:10:48.157Z,8.54
2017-06-14T01:11:48.142Z,8.46
2017-06-14T01:12:48.134Z,8.5
2017-06-14T01:13:48.125Z,8.57
2017-06-14T01:14:48.111Z,8.49
2017-06-14T01:15:47.800Z,8.57
2017-06-14T01:16:47.790Z,8.49
2017-06-14T01:17:47.779Z,8.52
2017-06-14T01:18:47.769Z,8.5
2017-06-14T01:19:47.758Z,8.58
2017-06-14T01:20:48.050Z,8.49
2017-06-14T01:21:48.044Z,8.57
2017-06-14T01:22:47.729Z,8.58
2017-06-14T01:23:48.020Z,8.6
2017-06-14T01:24:47.709Z,8.55
2017-06-14T01:25:48.000Z,8.58
2017-06-14T01:26:47.691Z,8.61
2017-06-14T01:27:47.982Z,8.52
2017-06-14T01:28:47.970Z,8.5
2017-06-14T01:29:47.658Z,8.6
2017-06-14T01:30:47.646Z,8.61
2017-06-14T01:31:47.635Z,8.68
2017-06-14T01:32:47.630Z,8.49
2017-06-14T01:33:47.615Z,8.52
2017-06-14T01:34:47.910Z,8.5
2017-06-14T01:35:47.897Z,8.54
2017-06-14T01:36:47.887Z,8.52
2017-06-14T01:37:47.572Z,8.55
2017-06-14T01:38:47.874Z,8.49
2017-06-14T01:39:47.852Z,8.45
2017-06-14T01:40:47.847Z,8.43
2017-06-14T01:41:47.833Z,8.46
2017-06-14T01:42:47.822Z,8.43
2017-06-14T01:43:47.812Z,8.37
2017-06-14T01:44:47.805Z,8.39
2017-06-14T01:45:47.792Z,8.43
2017-06-14T01:46:47.781Z,8.29
2017-06-14T01:47:47.769Z,8.31
2017-06-14T01:48:47.760Z,8.29
2017-06-14T01:49:47.751Z,8.32
2017-06-14T01:50:47.739Z,8.36
2017-06-14T01:51:47.728Z,8.4
2017-06-14T01:52:47.717Z,8.34
2017-06-14T01:53:47.711Z,8.31
2017-06-14T01:54:47.707Z,8.32
2017-06-14T01:55:47.388Z,8.36
2017-06-14T01:56:47.677Z,8.37
2017-06-14T01:57:47.668Z,8.43
2017-06-14T01:58:47.655Z,8.39
2017-06-14T01:59:47.645Z,8.47
2017-06-14T02:00:47.637Z,8.47
2017-06-14T02:01:47.629Z,8.45
2017-06-14T02:02:47.615Z,8.46
2017-06-14T02:03:47.606Z,8.37
2017-06-14T02:04:47.597Z,8.34
2017-06-14T02:05:47.589Z,8.34
2017-06-14T02:06:47.578Z,8.32
2017-06-14T02:07:47.566Z,8.31
2017-06-14T02:08:47.557Z,8.34
2017-06-14T02:09:47.547Z,8.37
2017-06-14T02:10:47.532Z,8.31
2017-06-14T02:11:47.521Z,8.25
2017-06-14T02:12:47.515Z,8.25
2017-06-14T02:13:47.499Z,8.31
2017-06-14T02:14:47.493Z,8.32
2017-06-14T02:15:47.481Z,8.22
2017-06-14T02:16:47.475Z,8.29
2017-06-14T02:17:47.164Z,8.28
2017-06-14T02:18:47.453Z,8.36
2017-06-14T02:19:47.439Z,8.27
2017-06-14T02:20:47.437Z,8.32
2017-06-14T02:21:47.425Z,8.27
2017-06-14T02:22:47.414Z,8.29
2017-06-14T02:23:47.398Z,8.27
2017-06-14T02:24:47.093Z,8.32
2017-06-14T02:25:47.384Z,8.22
2017-06-14T02:26:47.369Z,8.32
2017-06-14T02:27:47.355Z,8.29
2017-06-14T02:28:47.044Z,8.36
2017-06-14T02:29:47.338Z,8.28
2017-06-14T02:30:47.327Z,8.31
2017-06-14T02:31:47.317Z,8.28
2017-06-14T02:32:47.304Z,8.28
2017-06-14T02:33:47.298Z,8.32
2017-06-14T02:34:46.985Z,8.34
2017-06-14T02:35:47.275Z,8.36
2017-06-14T02:36:47.264Z,8.36
2017-06-14T02:37:47.254Z,8.36
2017-06-14T02:38:47.240Z,8.4
2017-06-14T02:39:47.231Z,8.36
2017-06-14T02:40:47.223Z,8.31
2017-06-14T02:41:47.212Z,8.28
2017-06-14T02:42:47.201Z,8.43
2017-06-14T02:43:47.225Z,8.37
2017-06-14T02:44:47.178Z,8.25
2017-06-14T02:45:47.167Z,8.36
2017-06-14T02:46:47.163Z,8.29
2017-06-14T02:47:47.147Z,8.28
2017-06-14T02:48:46.536Z,8.32
2017-06-14T02:49:47.125Z,8.27
2017-06-14T02:50:47.112Z,8.28
2017-06-14T02:51:47.102Z,8.27
2017-06-14T02:52:47.094Z,8.2
2017-06-14T02:53:47.080Z,8.18
2017-06-14T02:54:47.070Z,8.13
2017-06-14T02:55:47.064Z,8.27
2017-06-14T02:56:47.051Z,8.13
2017-06-14T02:57:47.040Z,8.18
2017-06-14T02:58:47.028Z,8.22
2017-06-14T02:59:47.018Z,8.2
2017-06-14T03:00:47.008Z,8.14
2017-06-14T03:01:47.036Z,8.25
2017-06-14T03:02:46.983Z,8.25
2017-06-14T03:03:46.971Z,8.2
2017-06-14T03:04:46.965Z,8.13
2017-06-14T03:05:46.951Z,8.2
2017-06-14T03:06:46.945Z,8.1
2017-06-14T03:07:46.930Z,8.18
2017-06-14T03:08:46.920Z,8.21
2017-06-14T03:09:46.912Z,8.2
2017-06-14T03:10:46.898Z,8.14
2017-06-14T03:11:46.886Z,8.18
2017-06-14T03:12:46.877Z,8.13
2017-06-14T03:13:46.867Z,8.2
2017-06-14T03:14:46.855Z,8.17
2017-06-14T03:15:46.844Z,8.14
2017-06-14T03:16:46.833Z,8.14
2017-06-14T03:17:46.823Z,8.1
2017-06-14T03:18:46.809Z,8.25
2017-06-14T03:19:46.807Z,8.13
2017-06-14T03:20:46.490Z,8.2
2017-06-14T03:21:46.786Z,8.13
2017-06-14T03:22:46.766Z,8.18
2017-06-14T03:23:46.799Z,8.14
2017-06-14T03:24:46.750Z,8.2
2017-06-14T03:25:46.768Z,8.14
2017-06-14T03:26:46.726Z,8.14
2017-06-14T03:27:46.720Z,8.12
2017-06-14T03:28:46.702Z,8.2
2017-06-14T03:29:46.693Z,8.1
2017-06-14T03:30:46.682Z,8.07
2017-06-14T03:31:46.672Z,8.04
2017-06-14T03:32:46.657Z,8.04
2017-06-14T03:33:46.650Z,8.13
2017-06-14T03:34:46.643Z,8.13
2017-06-14T03:35:46.627Z,8.17
2017-06-14T03:36:46.621Z,8.17
2017-06-14T03:37:46.609Z,8.12
2017-06-14T03:38:46.640Z,8.13
2017-06-14T03:39:46.590Z,8.13
2017-06-14T03:40:46.276Z,8.17
2017-06-14T03:41:46.572Z,8.18
2017-06-14T03:42:46.555Z,8.21
2017-06-14T03:43:46.547Z,8.09
2017-06-14T03:44:46.535Z,8.12
2017-06-14T03:45:46.524Z,8.2
2017-06-14T03:46:46.518Z,8.28
2017-06-14T03:47:46.504Z,8.28
2017-06-14T03:48:46.491Z,8.36
2017-06-14T03:49:46.480Z,8.29
2017-06-14T03:50:46.470Z,8.31
2017-06-14T03:51:46.464Z,8.31
2017-06-14T03:52:46.453Z,8.39
2017-06-14T03:53:46.439Z,8.27
2017-06-14T03:54:46.431Z,8.28
2017-06-14T03:55:46.415Z,8.34
2017-06-14T03:56:46.405Z,8.29
2017-06-14T03:57:46.398Z,8.31
2017-06-14T03:58:46.388Z,8.34
2017-06-14T03:59:46.378Z,8.32
2017-06-14T04:00:46.064Z,8.32
2017-06-14T04:01:46.359Z,8.29
2017-06-14T04:02:46.344Z,8.4
2017-06-14T04:03:46.342Z,8.28
2017-06-14T04:04:46.320Z,8.29
2017-06-14T04:05:46.311Z,8.27
2017-06-14T04:06:46.305Z,8.27
2017-06-14T04:07:46.293Z,8.25
2017-06-14T04:08:46.308Z,8.25
2017-06-14T04:09:46.269Z,8.36
2017-06-14T04:10:46.260Z,8.34
2017-06-14T04:11:46.249Z,8.28
2017-06-14T04:12:46.237Z,8.31
2017-06-14T04:13:46.230Z,8.34
2017-06-14T04:14:46.218Z,8.29
2017-06-14T04:15:46.211Z,8.29
2017-06-14T04:16:46.198Z,8.32
2017-06-14T04:17:46.195Z,8.28
2017-06-14T04:18:46.177Z,8.31
2017-06-14T04:19:46.163Z,8.27
2017-06-14T04:20:46.158Z,8.36
2017-06-14T04:21:46.149Z,8.31
2017-06-14T04:22:46.132Z,8.31
2017-06-14T04:23:46.130Z,8.32
2017-06-14T04:24:46.111Z,8.36
2017-06-14T04:25:45.800Z,8.28
2017-06-14T04:26:46.092Z,8.34
2017-06-14T04:27:46.084Z,8.28
2017-06-14T04:28:46.077Z,8.25
2017-06-14T04:29:45.760Z,8.28
2017-06-14T04:30:46.052Z,8.22
2017-06-14T04:31:46.040Z,8.28
2017-06-14T04:32:46.031Z,8.24
2017-06-14T04:33:45.713Z,8.32
2017-06-14T04:34:46.009Z,8.22
2017-06-14T04:35:45.998Z,8.31
2017-06-14T04:36:45.983Z,8.21
2017-06-14T04:37:45.975Z,8.25
2017-06-14T04:38:45.962Z,8.17
2017-06-14T04:39:45.950Z,8.27
2017-06-14T04:40:45.639Z,8.25
2017-06-14T04:41:45.936Z,8.22
2017-06-14T04:42:45.921Z,8.28
2017-06-14T04:43:45.915Z,8.25
2017-06-14T04:44:45.899Z,8.25
2017-06-14T04:45:45.893Z,8.14
2017-06-14T04:46:45.878Z,8.25
2017-06-14T04:47:45.583Z,8.24
2017-06-14T04:48:45.857Z,8.2
2017-06-14T04:49:45.853Z,8.21
2017-06-14T04:50:45.841Z,8.17
2017-06-14T04:51:45.825Z,8.18
2017-06-14T04:52:45.815Z,8.17
2017-06-14T04:53:45.805Z,8.1
2017-06-14T04:54:45.792Z,8.18
2017-06-14T04:55:45.786Z,8.13
2017-06-14T04:56:45.769Z,8.06
2017-06-14T04:57:45.761Z,8.13
2017-06-14T04:58:45.750Z,8.13
2017-06-14T04:59:45.743Z,8.25
2017-06-14T05:00:45.739Z,8.21
2017-06-14T05:01:45.720Z,8.31
2017-06-14T05:02:45.706Z,8.25
2017-06-14T05:03:45.394Z,8.28
2017-06-14T05:04:45.688Z,8.25
2017-06-14T05:05:45.678Z,8.27
2017-06-14T05:06:45.664Z,8.29
2017-06-14T05:07:45.656Z,8.36
2017-06-14T05:08:45.647Z,8.28
2017-06-14T05:09:45.632Z,8.31
2017-06-14T05:10:45.625Z,8.37
2017-06-14T05:11:45.612Z,8.32
2017-06-14T05:12:45.609Z,8.42
2017-06-14T05:13:45.591Z,8.49
2017-06-14T05:14:45.587Z,8.46
2017-06-14T05:15:45.572Z,8.54
2017-06-14T05:16:45.561Z,8.73
2017-06-14T05:17:45.547Z,8.57
2017-06-14T05:18:45.536Z,8.49
2017-06-14T05:19:45.528Z,8.61
2017-06-14T05:20:45.512Z,8.67
2017-06-14T05:21:45.205Z,8.54
2017-06-14T05:22:45.497Z,8.63
2017-06-14T05:23:45.186Z,8.58
2017-06-14T05:24:45.474Z,8.54
2017-06-14T05:25:45.466Z,8.46
2017-06-14T05:26:45.458Z,8.46
2017-06-14T05:27:45.445Z,8.49
2017-06-14T05:28:45.438Z,8.54
2017-06-14T05:29:45.425Z,8.54
2017-06-14T05:30:45.412Z,8.6
2017-06-14T05:31:45.403Z,8.58
2017-06-14T05:32:45.391Z,8.47
2017-06-14T05:33:45.082Z,8.65
2017-06-14T05:34:45.370Z,8.61
2017-06-14T05:35:45.367Z,8.58
2017-06-14T05:36:45.349Z,8.71
2017-06-14T05:37:45.341Z,8.76
2017-06-14T05:38:45.332Z,8.64
2017-06-14T05:39:45.320Z,8.71
2017-06-14T05:40:45.310Z,8.79
2017-06-14T05:41:45.297Z,8.7
2017-06-14T05:42:44.984Z,8.71
2017-06-14T05:43:45.278Z,8.71
2017-06-14T05:44:45.263Z,8.83
2017-06-14T05:45:45.259Z,8.83
2017-06-14T05:46:44.944Z,8.76
2017-06-14T05:47:45.233Z,8.79
2017-06-14T05:48:45.223Z,8.83
2017-06-14T05:49:45.217Z,8.8
2017-06-14T05:50:44.935Z,8.8
2017-06-14T05:51:45.192Z,8.73
2017-06-14T05:52:45.180Z,8.71
2017-06-14T05:53:45.174Z,8.65
2017-06-14T05:54:45.166Z,8.6
2017-06-14T05:55:45.150Z,8.7
2017-06-14T05:56:45.141Z,8.65
2017-06-14T05:57:45.130Z,8.75
2017-06-14T05:58:45.116Z,8.63
2017-06-14T05:59:45.112Z,8.64
2017-06-14T06:00:45.103Z,8.63
2017-06-14T06:01:45.092Z,8.65
2017-06-14T06:02:45.080Z,8.61
2017-06-14T06:03:45.071Z,8.52
2017-06-14T06:04:45.056Z,8.61
2017-06-14T06:05:45.048Z,8.64
2017-06-14T06:06:44.735Z,8.68
2017-06-14T06:07:45.027Z,8.73
2017-06-14T06:08:45.021Z,8.8
2017-06-14T06:09:45.002Z,8.71
2017-06-14T06:10:44.998Z,8.78
2017-06-14T06:11:44.988Z,8.91
2017-06-14T06:12:44.974Z,8.85
2017-06-14T06:13:44.964Z,8.89
2017-06-14T06:14:44.952Z,8.91
2017-06-14T06:15:44.937Z,8.98
2017-06-14T06:16:44.632Z,9.01
2017-06-14T06:17:44.919Z,9.03
2017-06-14T06:18:44.915Z,9.08
2017-06-14T06:19:44.903Z,9.24
2017-06-14T06:20:44.891Z,9.45
2017-06-14T06:21:44.878Z,9.27
2017-06-14T06:22:44.869Z,9.2
2017-06-14T06:23:44.857Z,9.38
2017-06-14T06:24:44.848Z,9.53
2017-06-14T06:25:44.841Z,9.65
2017-06-14T06:26:44.825Z,9.77
2017-06-14T06:27:44.820Z,9.78
2017-06-14T06:28:44.809Z,9.77
2017-06-14T06:29:44.797Z,9.68
2017-06-14T06:30:44.787Z,9.74
2017-06-14T06:31:44.774Z,9.95
2017-06-14T06:32:44.767Z,9.98
2017-06-14T06:33:44.760Z,10.1
2017-06-14T06:34:44.749Z,10.24
2017-06-14T06:35:44.738Z,10.22
2017-06-14T06:36:44.729Z,10.07
2017-06-14T06:37:44.717Z,10.07
2017-06-14T06:38:44.710Z,9.98
2017-06-14T06:39:44.397Z,9.75
2017-06-14T06:40:44.687Z,9.59
2017-06-14T06:41:44.683Z,9.73
2017-06-14T06:42:44.669Z,9.62
2017-06-14T06:43:44.668Z,9.58
2017-06-14T06:44:44.650Z,9.63
2017-06-14T06:45:44.640Z,9.5
2017-06-14T06:46:44.634Z,9.71
2017-06-14T06:47:44.622Z,9.49
2017-06-14T06:48:44.611Z,9.45
2017-06-14T06:49:44.602Z,9.55
2017-06-14T06:50:44.589Z,9.73
2017-06-14T06:51:44.578Z,9.8
2017-06-14T06:52:44.570Z,9.92
2017-06-14T06:53:44.557Z,10.14
2017-06-14T06:54:44.549Z,10.29
2017-06-14T06:55:44.539Z,10.8
2017-06-14T06:56:44.532Z,10.8
2017-06-14T06:57:44.528Z,10.81
2017-06-14T06:58:44.512Z,10.62
2017-06-14T06:59:44.538Z,10.43
2017-06-14T07:00:44.494Z,10.47
2017-06-14T07:01:44.485Z,10.62
2017-06-14T07:02:44.480Z,10.42
2017-06-14T07:03:44.466Z,10.6
2017-06-14T07:04:44.458Z,10.38
2017-06-14T07:05:44.448Z,10.2
2017-06-14T07:06:44.438Z,10.28
2017-06-14T07:07:44.434Z,10.57
2017-06-14T07:08:44.422Z,10.43
2017-06-14T07:09:44.409Z,10.17
2017-06-14T07:10:44.401Z,10.26
2017-06-14T07:11:44.392Z,10.62
2017-06-14T07:12:44.380Z,10.9
2017-06-14T07:13:44.374Z,11.16
2017-06-14T07:14:44.363Z,11.2
2017-06-14T07:15:44.389Z,11.13
2017-06-14T07:16:44.343Z,10.58
2017-06-14T07:17:44.337Z,10.25
2017-06-14T07:18:44.329Z,10.13
2017-06-14T07:19:44.321Z,10.31
2017-06-14T07:20:44.308Z,10.47
2017-06-14T07:21:44.303Z,10.68
2017-06-14T07:22:44.290Z,10.66
2017-06-14T07:23:44.283Z,10.76
2017-06-14T07:24:44.274Z,10.81
2017-06-14T07:25:44.262Z,11.16
2017-06-14T07:26:44.257Z,10.9
2017-06-14T07:27:43.943Z,10.69
2017-06-14T07:28:44.251Z,10.68
2017-06-14T07:29:44.233Z,10.49
2017-06-14T07:30:44.219Z,10.29
2017-06-14T07:31:44.215Z,10.52
2017-06-14T07:32:43.900Z,10.57
2017-06-14T07:33:43.892Z,10.43
2017-06-14T07:34:44.187Z,10.63
2017-06-14T07:35:44.175Z,10.65
2017-06-14T07:36:44.165Z,10.58
2017-06-14T07:37:44.161Z,10.57
2017-06-14T07:38:44.148Z,10.68
2017-06-14T07:39:44.137Z,10.62
2017-06-14T07:40:44.132Z,10.69
2017-06-14T07:41:44.122Z,10.65
2017-06-14T07:42:44.114Z,10.72
2017-06-14T07:43:44.104Z,11.36
2017-06-14T07:44:44.100Z,11.74
2017-06-14T07:45:44.083Z,12.07
2017-06-14T07:46:44.073Z,12.56
2017-06-14T07:47:44.068Z,12.15
2017-06-14T07:48:44.060Z,11.66
2017-06-14T07:49:44.049Z,11.08
2017-06-14T07:50:44.039Z,11.23
2017-06-14T07:51:44.035Z,11.09
2017-06-14T07:52:43.722Z,10.51
2017-06-14T07:53:44.020Z,11.08
2017-06-14T07:54:44.008Z,11.94
2017-06-14T07:55:43.997Z,12.41
2017-06-14T07:56:43.992Z,12.04
2017-06-14T07:57:43.985Z,12.22
2017-06-14T07:58:43.979Z,11.77
2017-06-14T07:59:43.972Z,11.31
2017-06-14T08:00:43.961Z,11.64
2017-06-14T08:01:43.652Z,10.63
2017-06-14T08:02:43.943Z,10.42
2017-06-14T08:03:43.940Z,10.17
2017-06-14T08:04:43.929Z,10.04
2017-06-14T08:05:43.918Z,10.2
2017-06-14T08:06:43.912Z,10.46
2017-06-14T08:07:43.601Z,10.51
2017-06-14T08:08:43.894Z,10.1
2017-06-14T08:09:43.886Z,10.13
2017-06-14T08:10:43.876Z,10.26
2017-06-14T08:11:43.862Z,10.32
2017-06-14T08:12:43.559Z,10.2
2017-06-14T08:13:43.849Z,10.25
2017-06-14T08:14:43.843Z,10.47
2017-06-14T08:15:43.831Z,10.09
2017-06-14T08:16:43.824Z,10.17
2017-06-14T08:17:43.816Z,10.09
2017-06-14T08:18:43.806Z,10.29
2017-06-14T08:19:43.802Z,10.73
2017-06-14T08:20:43.788Z,10.95
2017-06-14T08:21:43.784Z,11.08
2017-06-14T08:22:43.772Z,11.56
2017-06-14T08:23:43.761Z,11.7
2017-06-14T08:24:43.755Z,11.82
2017-06-14T08:25:43.748Z,11.57
2017-06-14T08:26:43.739Z,11.21
2017-06-14T08:27:43.729Z,10.9
2017-06-14T08:28:43.719Z,11.17
2017-06-14T08:29:43.711Z,11.45
2017-06-14T08:30:43.701Z,11.44
2017-06-14T08:31:43.697Z,11.94
2017-06-14T08:32:43.691Z,12.07
2017-06-14T08:33:43.686Z,12.38
2017-06-14T08:34:43.676Z,12.15
2017-06-14T08:35:43.663Z,11.94
2017-06-14T08:36:43.657Z,11.9
2017-06-14T08:37:43.347Z,11.48
2017-06-14T08:38:43.640Z,11.36
2017-06-14T08:39:43.638Z,11.77
2017-06-14T08:40:43.626Z,12.13
2017-06-14T08:41:43.621Z,12.52
2017-06-14T08:42:43.613Z,12.59
2017-06-14T08:43:43.603Z,12.52
2017-06-14T08:44:43.297Z,12.38
2017-06-14T08:45:43.592Z,12.66
2017-06-14T08:46:43.584Z,12.71
2017-06-14T08:47:43.577Z,12.71
2017-06-14T08:48:43.570Z,12.7
2017-06-14T08:49:43.565Z,12.58
2017-06-14T08:50:43.252Z,12.73
2017-06-14T08:51:43.551Z,13.16
2017-06-14T08:52:43.242Z,13.24
2017-06-14T08:53:43.534Z,13.03
2017-06-14T08:54:43.530Z,12.95
2017-06-14T08:55:43.522Z,12.58
2017-06-14T08:56:43.519Z,11.94
2017-06-14T08:57:43.509Z,12.36
2017-06-14T08:58:43.502Z,12.15
2017-06-14T08:59:43.496Z,11.98
2017-06-14T09:00:43.187Z,12.01
2017-06-14T09:01:43.481Z,12.37
2017-06-14T09:02:43.471Z,12.12
2017-06-14T09:03:43.467Z,11.54
2017-06-14T09:04:43.462Z,11.59
2017-06-14T09:05:43.455Z,12.01
2017-06-14T09:06:43.446Z,12.05
2017-06-14T09:07:43.437Z,11.78
2017-06-14T09:08:43.433Z,11.98
2017-06-14T09:09:43.426Z,11.69
2017-06-14T09:10:43.418Z,11.81
2017-06-14T09:11:43.408Z,12.18
2017-06-14T09:12:43.404Z,11.67
2017-06-14T09:13:43.397Z,11.31
2017-06-14T09:14:43.387Z,11.38
2017-06-14T09:15:43.379Z,11.74
2017-06-14T09:16:43.376Z,11.96
2017-06-14T09:17:43.365Z,12.03
2017-06-14T09:18:43.390Z,12.62
2017-06-14T09:19:43.352Z,13.1
2017-06-14T09:20:43.343Z,13.13
2017-06-14T09:21:43.363Z,13.12
2017-06-14T09:22:43.332Z,12.63
2017-06-14T09:23:43.319Z,12.76
2017-06-14T09:24:43.314Z,12.62
2017-06-14T09:25:43.311Z,12.63
2017-06-14T09:26:43.299Z,11.81
2017-06-14T09:27:43.306Z,12.16
2017-06-14T09:28:43.287Z,12.29
2017-06-14T09:29:43.282Z,12.01
2017-06-14T09:30:43.275Z,11.64
2017-06-14T09:31:43.268Z,11.45
2017-06-14T09:32:43.259Z,11.75
2017-06-14T09:33:43.254Z,11.7
2017-06-14T09:34:43.243Z,11.59
2017-06-14T09:35:43.245Z,11.6
2017-06-14T09:36:43.233Z,11.51
2017-06-14T09:37:43.221Z,11.17
2017-06-14T09:38:43.238Z,10.7
2017-06-14T09:39:43.210Z,10.81
2017-06-14T09:40:43.201Z,10.86
2017-06-14T09:41:43.194Z,10.86
2017-06-14T09:42:43.183Z,11.02
2017-06-14T09:43:43.176Z,10.9
2017-06-14T09:44:43.169Z,10.91
2017-06-14T09:45:43.161Z,11.01
2017-06-14T09:46:42.861Z,11.26
2017-06-14T09:47:42.845Z,11.6
2017-06-14T09:48:43.142Z,11.54
2017-06-14T09:49:43.129Z,11.53
2017-06-14T09:50:43.126Z,11.23
2017-06-14T09:51:43.118Z,10.91
2017-06-14T09:52:43.108Z,10.83
2017-06-14T09:53:43.103Z,10.95
2017-06-14T09:54:43.090Z,11.27
2017-06-14T09:55:43.082Z,11.05
2017-06-14T09:56:43.075Z,10.98
2017-06-14T09:57:43.069Z,10.88
2017-06-14T09:58:43.061Z,10.65
2017-06-14T09:59:43.054Z,10.6
2017-06-14T10:00:43.051Z,10.35
2017-06-14T10:01:43.032Z,10.39
2017-06-14T10:02:43.026Z,10.42
2017-06-14T10:03:43.019Z,10.46
2017-06-14T10:04:43.010Z,10.28
2017-06-14T10:05:43.011Z,10.43
2017-06-14T10:06:42.997Z,10.75
2017-06-14T10:07:42.986Z,10.68
2017-06-14T10:08:42.977Z,10.66
2017-06-14T10:09:42.971Z,10.84
2017-06-14T10:10:42.660Z,10.8
2017-06-14T10:11:42.949Z,10.99
2017-06-14T10:12:42.944Z,10.8
2017-06-14T10:13:42.937Z,10.63
2017-06-14T10:14:42.926Z,10.69
2017-06-14T10:15:42.922Z,11.11
2017-06-14T10:16:42.606Z,11.42
2017-06-14T10:17:42.904Z,11.54
2017-06-14T10:18:42.893Z,11.56
2017-06-14T10:19:42.888Z,11.66
2017-06-14T10:20:42.878Z,11.9
2017-06-14T10:21:42.869Z,12.03
2017-06-14T10:22:42.868Z,12
2017-06-14T10:23:42.852Z,12.07
2017-06-14T10:24:42.849Z,11.87
2017-06-14T10:25:42.837Z,11.87
2017-06-14T10:26:42.528Z,11.75
2017-06-14T10:27:42.824Z,11.93
2017-06-14T10:28:42.813Z,12.15
2017-06-14T10:29:42.821Z,12.26
2017-06-14T10:30:42.798Z,12.73
2017-06-14T10:31:42.791Z,13.24
2017-06-14T10:32:42.784Z,13.68
2017-06-14T10:33:42.778Z,13.44
2017-06-14T10:34:42.770Z,13.41
2017-06-14T10:35:42.759Z,13.88
2017-06-14T10:36:42.757Z,13.62
2017-06-14T10:37:42.752Z,12.74
2017-06-14T10:38:42.742Z,12.92
2017-06-14T10:39:42.741Z,12.74
2017-06-14T10:40:42.729Z,12.31
2017-06-14T10:41:42.723Z,12.31
2017-06-14T10:42:42.718Z,12.36
2017-06-14T10:43:42.707Z,12.13
2017-06-14T10:44:42.705Z,12.07
2017-06-14T10:45:42.693Z,12.05
2017-06-14T10:46:42.688Z,12.4
2017-06-14T10:47:42.681Z,12.95
2017-06-14T10:48:42.672Z,13.09
2017-06-14T10:49:42.665Z,12.66
2017-06-14T10:50:42.356Z,12.34
2017-06-14T10:51:42.650Z,12.66
2017-06-14T10:52:42.640Z,12.69
2017-06-14T10:53:42.639Z,12.74
2017-06-14T10:54:42.631Z,12.7
2017-06-14T10:55:42.634Z,12.59
2017-06-14T10:56:42.615Z,11.79
2017-06-14T10:57:42.641Z,12.4
2017-06-14T10:58:42.601Z,12.77
2017-06-14T10:59:42.590Z,12.88
2017-06-14T11:00:42.587Z,12.91
2017-06-14T11:01:42.581Z,12.59
2017-06-14T11:02:42.573Z,12.05
2017-06-14T11:03:42.566Z,11.98
2017-06-14T11:04:42.556Z,12.18
2017-06-14T11:05:42.552Z,12.44
2017-06-14T11:06:42.542Z,12.67
2017-06-14T11:07:42.537Z,12.31
2017-06-14T11:08:42.527Z,12.66
2017-06-14T11:09:42.523Z,12.87
2017-06-14T11:10:42.513Z,12.51
2017-06-14T11:11:42.511Z,12.31
2017-06-14T11:12:42.510Z,12.41
2017-06-14T11:13:42.492Z,12.77
2017-06-14T11:14:42.488Z,12.33
2017-06-14T11:15:42.484Z,12.29
2017-06-14T11:16:42.477Z,12.43
2017-06-14T11:17:42.462Z,12.66
2017-06-14T11:18:42.457Z,12.49
2017-06-14T11:19:42.453Z,11.93
2017-06-14T11:20:42.443Z,11.79
2017-06-14T11:21:42.437Z,11.51
2017-06-14T11:22:42.432Z,11.63
2017-06-14T11:23:42.426Z,11.69
2017-06-14T11:24:42.414Z,11.74
2017-06-14T11:25:42.409Z,11.72
2017-06-14T11:26:42.401Z,11.6
2017-06-14T11:27:42.390Z,11.62
2017-06-14T11:28:42.383Z,11.44
2017-06-14T11:29:42.376Z,11.54
2017-06-14T11:30:42.372Z,11.49
2017-06-14T11:31:42.062Z,11.75
2017-06-14T11:32:42.353Z,11.45
2017-06-14T11:33:42.346Z,11.67
2017-06-14T11:34:42.339Z,11.9
2017-06-14T11:35:42.340Z,12.03
2017-06-14T11:36:42.327Z,12
2017-06-14T11:37:42.316Z,12.18
2017-06-14T11:38:42.308Z,12.34
2017-06-14T11:39:42.300Z,12.62
2017-06-14T11:40:42.296Z,13.28
2017-06-14T11:41:42.287Z,13.53
2017-06-14T11:42:41.976Z,12.99
2017-06-14T11:43:42.275Z,12.51
2017-06-14T11:44:41.963Z,12.41
2017-06-14T11:45:42.254Z,12.92
2017-06-14T11:46:42.250Z,12.51
2017-06-14T11:47:42.240Z,12.61
2017-06-14T11:48:42.233Z,12.91
2017-06-14T11:49:42.229Z,13.06
2017-06-14T11:50:41.920Z,12.71
2017-06-14T11:51:42.217Z,12.61
2017-06-14T11:52:42.210Z,12.91
2017-06-14T11:53:41.906Z,12.41
2017-06-14T11:54:42.193Z,12.18
2017-06-14T11:55:42.184Z,12.37
2017-06-14T11:56:42.181Z,12.41
2017-06-14T11:57:42.173Z,12.41
2017-06-14T11:58:42.164Z,12.61
2017-06-14T11:59:42.158Z,12.63
2017-06-14T12:00:41.853Z,12.18
2017-06-14T12:01:42.140Z,12.33
2017-06-14T12:02:42.141Z,12.81
2017-06-14T12:03:42.132Z,12.71
2017-06-14T12:04:42.126Z,12.71
2017-06-14T12:05:42.117Z,13.13
2017-06-14T12:06:41.807Z,13.46
2017-06-14T12:07:42.102Z,13.22
2017-06-14T12:08:42.097Z,13.17
2017-06-14T12:09:42.091Z,12.87
2017-06-14T12:10:41.783Z,12.55
2017-06-14T12:11:42.075Z,12.56
2017-06-14T12:12:42.066Z,12.58
2017-06-14T12:13:42.063Z,12.21
2017-06-14T12:14:41.754Z,11.64
2017-06-14T12:15:42.051Z,12.21
2017-06-14T12:16:42.043Z,12.88
2017-06-14T12:17:42.031Z,12.76
2017-06-14T12:18:42.030Z,13.22
2017-06-14T12:19:42.022Z,13.43
2017-06-14T12:20:42.013Z,13.32
2017-06-14T12:21:42.011Z,13.16
2017-06-14T12:22:41.998Z,12.85
2017-06-14T12:23:41.992Z,12.54
2017-06-14T12:24:41.980Z,12.41
2017-06-14T12:25:41.977Z,12.76
2017-06-14T12:26:41.969Z,13.43
2017-06-14T12:27:41.962Z,12.79
2017-06-14T12:28:41.957Z,12.55
2017-06-14T12:29:41.950Z,12.43
2017-06-14T12:30:41.942Z,13.21
2017-06-14T12:31:41.635Z,13.83
2017-06-14T12:32:41.930Z,13.96
2017-06-14T12:33:41.928Z,13.75
2017-06-14T12:34:41.919Z,13.32
2017-06-14T12:35:41.912Z,12.98
2017-06-14T12:36:41.907Z,12.94
2017-06-14T12:37:41.900Z,12.52
2017-06-14T12:38:41.893Z,12.43
2017-06-14T12:39:41.887Z,12.19
2017-06-14T12:40:41.575Z,11.87
2017-06-14T12:41:41.872Z,11.96
2017-06-14T12:42:41.868Z,12.8
2017-06-14T12:43:41.860Z,13.57
2017-06-14T12:44:41.580Z,13.71
2017-06-14T12:45:41.846Z,13.39
2017-06-14T12:46:41.838Z,13.54
2017-06-14T12:47:41.834Z,13.07
2017-06-14T12:48:41.823Z,13.54
2017-06-14T12:49:41.823Z,13.73
2017-06-14T12:50:41.514Z,14.02
2017-06-14T12:51:41.803Z,14.86
2017-06-14T12:52:41.795Z,15.66
2017-06-14T12:53:41.791Z,16.37
2017-06-14T12:54:41.790Z,16.34
2017-06-14T12:55:41.780Z,15.71
2017-06-14T12:56:41.775Z,15.84
2017-06-14T12:57:41.807Z,15.89
2017-06-14T12:58:41.760Z,15.16
2017-06-14T12:59:41.760Z,15.07
2017-06-14T13:00:41.749Z,15.64
2017-06-14T13:01:41.442Z,15.8
2017-06-14T13:02:41.738Z,15.3
2017-06-14T13:03:41.734Z,15.38
2017-06-14T13:04:41.727Z,15.49
2017-06-14T13:05:41.725Z,15.2
2017-06-14T13:06:41.717Z,15.34
2017-06-14T13:07:41.712Z,16.25
2017-06-14T13:08:41.708Z,16.7